Latest Weather Observations for Frederick Reef

IDQ60801

Issued at 4:52 pm EST Wednesday 8 April 2020 (issued every 10 minutes, with the page automatically refreshed every 10 minutes)

About weather observations | Map of weather stations | Latest weather observations for QLD | Other Formats
Station Details ID: 200701 Name: FREDERICK REEF Lat: -20.94 Lon: 154.40 Height: 4.9 m
Data from the previous 72 hours. | See also: Recent months at Frederick Reef
Date/Time
EST
Temp
°C
App
Temp
°C
Dew
Point
°C
Rel
Hum
%
Delta-T
°C
Wind Press
QNH
hPa
Press
MSL
hPa
Rain since
9am
mm
Dir  Spd
km/h
Gust
km/h
Spd
kts
Gust
kts
08/04:30pm 25.8 - - - - SSE 35 39 19 21 1012.5 1012.5 -
08/04:00pm 25.9 - - - - SE 33 41 18 22 1012.0 1012.0 -
08/03:30pm 25.8 - - - - SSE 33 39 18 21 1012.1 1012.1 -
08/03:00pm 25.8 - - - - SSE 35 41 19 22 1012.0 1012.0 -
08/02:30pm 25.8 - - - - SSE 35 43 19 23 1011.9 1011.9 -
08/02:00pm 25.8 - - - - SSE 37 43 20 23 1012.1 1012.1 -
08/01:30pm 25.9 - - - - SSE 35 39 19 21 1012.3 1012.3 -
08/01:00pm 25.9 - - - - SE 35 39 19 21 1012.7 1012.7 -
08/12:30pm 26.0 - - - - SSE 35 39 19 21 1012.8 1012.8 -
08/12:00pm 25.8 - - - - SE 35 39 19 21 1013.1 1013.1 -
08/11:30am 25.9 - - - - SE 35 41 19 22 1013.5 1013.5 -
08/11:00am 25.8 - - - - SE 35 39 19 21 1013.8 1013.8 -
08/10:30am 25.8 - - - - SE 35 39 19 21 1014.1 1014.1 -
08/10:00am 25.7 - - - - SE 35 43 19 23 1014.3 1014.3 -
08/09:30am 25.5 - - - - SE 37 43 20 23 1014.2 1014.2 -
08/09:00am 25.7 - - - - SE 35 41 19 22 1014.2 1014.2 -
08/08:30am 25.5 - - - - SE 37 43 20 23 1014.1 1014.1 -
08/08:00am 25.5 - - - - SE 39 43 21 23 1013.7 1013.7 -
08/07:30am 25.4 - - - - SE 39 46 21 25 1013.4 1013.4 -
08/07:00am 25.5 - - - - SE 43 48 23 26 1013.1 1013.1 -
08/06:30am 25.7 - - - - SE 41 50 22 27 1012.8 1012.8 -
08/06:00am 25.4 - - - - SE 43 48 23 26 1012.4 1012.4 -
08/05:30am 25.3 - - - - SSE 44 52 24 28 1012.2 1012.2 -
08/05:00am 25.5 - - - - SE 44 50 24 27 1012.0 1012.0 -
08/04:30am 25.4 - - - - SSE 43 50 23 27 1011.8 1011.8 -
08/04:00am 25.7 - - - - SE 44 52 24 28 1011.6 1011.6 -
08/03:30am 25.4 - - - - SSE 44 52 24 28 1011.3 1011.3 -
08/03:00am 25.5 - - - - SSE 43 54 23 29 1011.4 1011.4 -
08/02:30am 25.7 - - - - SE 44 50 24 27 1011.5 1011.5 -
08/02:00am 25.7 - - - - SSE 43 48 23 26 1011.6 1011.6 -
08/01:30am 25.8 - - - - SE 43 48 23 26 1012.0 1012.0 -
08/01:00am 25.6 - - - - SE 46 54 25 29 1012.2 1012.2 -
08/12:30am 26.1 - - - - SE 44 52 24 28 1012.3 1012.3 -
08/12:00am 25.9 - - - - SE 46 52 25 28 1012.2 1012.2 -
 
Date/Time
EST
Temp
°C
App
Temp
°C
Dew
Point
°C
Rel
Hum
%
Delta-T
°C
Wind Press
QNH
hPa
Press
MSL
hPa
Rain since
9am
mm
Dir  Spd
km/h
Gust
km/h
Spd
kts
Gust
kts
07/11:30pm 25.8 - - - - SE 50 56 27 30 1012.4 1012.4 -
07/11:00pm 26.0 - - - - SSE 50 56 27 30 1012.4 1012.4 -
07/10:30pm 26.3 - - - - SE 48 54 26 29 1012.5 1012.5 -
07/10:00pm 26.0 - - - - SSE 48 56 26 30 1012.5 1012.5 -
07/09:30pm 26.0 - - - - SSE 44 50 24 27 1012.7 1012.7 -
07/09:00pm 25.4 - - - - SSE 46 54 25 29 1012.6 1012.6 -
07/08:30pm 25.7 - - - - SSE 50 56 27 30 1012.6 1012.6 -
07/08:00pm 24.7 - - - - SE 50 63 27 34 1012.4 1012.4 -
07/07:30pm 25.6 - - - - SSE 50 56 27 30 1012.1 1012.1 -
07/07:00pm 25.8 - - - - SSE 50 59 27 32 1011.7 1011.7 -
07/06:30pm 25.7 - - - - SSE 46 54 25 29 1011.4 1011.4 -
07/06:00pm 24.9 - - - - S 35 44 19 24 1011.3 1011.3 -
07/05:30pm 24.7 - - - - S 46 56 25 30 1011.0 1011.0 -
07/05:00pm 24.8 - - - - SSE 52 57 28 31 1010.8 1010.8 -
07/04:30pm 25.1 - - - - SSE 43 48 23 26 1010.5 1010.5 -
07/04:00pm 25.1 - - - - SSE 48 54 26 29 1010.1 1010.1 -
07/03:30pm 25.6 - - - - SSE 46 54 25 29 1010.0 1010.0 -
07/03:00pm 25.6 - - - - SSE 46 52 25 28 1009.9 1009.9 -
07/02:30pm 25.7 - - - - SSE 46 52 25 28 1009.9 1009.9 -
07/02:00pm 26.2 - - - - SSE 46 52 25 28 1009.9 1009.9 -
07/01:30pm 26.0 - - - - SSE 44 50 24 27 1010.1 1010.1 -
07/01:00pm 26.0 - - - - SSE 44 48 24 26 1010.5 1010.5 -
07/12:30pm 26.1 - - - - SSE 41 44 22 24 1011.0 1011.0 -
07/12:00pm 25.7 - - - - SSE 41 46 22 25 1011.4 1011.4 -
07/11:30am 24.9 - - - - SSE 39 46 21 25 1012.1 1012.1 -
07/11:00am 26.0 - - - - SSE 39 43 21 23 1012.4 1012.4 -
07/10:30am 26.0 - - - - SSE 41 46 22 25 1012.8 1012.8 -
07/10:00am 26.3 - - - - SSE 39 44 21 24 1012.9 1012.9 -
07/09:30am 25.6 - - - - SSE 37 43 20 23 1013.1 1013.1 -
07/09:00am 26.3 - - - - SSE 39 43 21 23 1012.8 1012.8 -
07/08:30am 25.9 - - - - SSE 35 43 19 23 1012.6 1012.6 -
07/08:00am 26.1 - - - - SSE 37 41 20 22 1012.4 1012.4 -
07/07:30am 26.0 - - - - SSE 39 43 21 23 1011.9 1011.9 -
07/07:00am 25.8 - - - - SSE 37 43 20 23 1011.6 1011.6 -
07/06:30am 26.1 - - - - SSE 37 41 20 22 1011.3 1011.3 -
07/06:00am 25.9 - - - - SSE 37 43 20 23 1011.0 1011.0 -
07/05:30am 25.8 - - - - SSE 35 39 19 21 1010.8 1010.8 -
07/05:00am 25.9 - - - - SSE 32 35 17 19 1010.7 1010.7 -
07/04:30am 25.9 - - - - SSE 35 43 19 23 1010.6 1010.6 -
07/04:00am 25.9 - - - - SSE 35 41 19 22 1010.4 1010.4 -
07/03:30am 26.0 - - - - SSE 33 39 18 21 1010.5 1010.5 -
07/03:00am 25.8 - - - - SSE 35 41 19 22 1010.7 1010.7 -
07/02:30am 25.9 - - - - SSE 35 41 19 22 1010.7 1010.7 -
07/02:00am 26.0 - - - - SSE 33 39 18 21 1010.9 1010.9 -
07/01:30am 26.1 - - - - SSE 35 41 19 22 1011.4 1011.4 -
07/01:00am 25.7 - - - - SSE 35 41 19 22 1011.5 1011.5 -
07/12:30am 26.0 - - - - SSE 35 41 19 22 1011.8 1011.8 -
07/12:00am 26.1 - - - - SSE 39 43 21 23 1011.9 1011.9 -
 
Date/Time
EST
Temp
°C
App
Temp
°C
Dew
Point
°C
Rel
Hum
%
Delta-T
°C
Wind Press
QNH
hPa
Press
MSL
hPa
Rain since
9am
mm
Dir  Spd
km/h
Gust
km/h
Spd
kts
Gust
kts
06/11:30pm 26.0 - - - - SSE 39 46 21 25 1011.9 1011.9 -
06/11:00pm 25.9 - - - - SSE 41 46 22 25 1012.1 1012.1 -
06/10:30pm 26.0 - - - - SSE 43 46 23 25 1012.2 1012.2 -
06/10:00pm 26.1 - - - - SSE 43 46 23 25 1012.3 1012.3 -
06/09:30pm 25.9 - - - - S 43 46 23 25 1012.3 1012.3 -
06/09:00pm 26.2 - - - - S 41 46 22 25 1012.4 1012.4 -
06/08:30pm 26.1 - - - - S 43 46 23 25 1012.4 1012.4 -
06/08:00pm 26.1 - - - - SSE 41 44 22 24 1012.4 1012.4 -
06/07:30pm 26.4 - - - - SSE 39 44 21 24 1012.1 1012.1 -
06/07:00pm 26.2 - - - - SSE 43 46 23 25 1011.7 1011.7 -
06/06:30pm 26.2 - - - - S 43 48 23 26 1011.6 1011.6 -
06/06:00pm 25.9 - - - - SSE 44 50 24 27 1011.3 1011.3 -
06/05:30pm 26.3 - - - - SSE 39 44 21 24 1011.1 1011.1 -
06/05:00pm 26.0 - - - - SSE 43 46 23 25 1010.8 1010.8 -
06/04:30pm 26.1 - - - - SSE 39 44 21 24 1010.6 1010.6 -
06/04:00pm 26.4 - - - - SSE 39 44 21 24 1010.3 1010.3 -
06/03:30pm 26.3 - - - - SSE 41 44 22 24 1010.3 1010.3 -
06/03:00pm 25.9 - - - - SSE 39 46 21 25 1010.4 1010.4 -
06/02:43pm 25.5 - - - - SSE 37 44 20 24 1010.4 1010.4 -
06/02:30pm 25.9 - - - - S 37 41 20 22 1010.5 1010.5 -
06/02:00pm 26.3 - - - - SSE 35 39 19 21 1010.5 1010.5 -
06/01:30pm 26.5 - - - - SSE 33 39 18 21 1010.8 1010.8 -
06/01:00pm 26.5 - - - - SSE 32 35 17 19 1011.0 1011.0 -
06/12:30pm 26.4 - - - - SSE 33 39 18 21 1011.5 1011.5 -
06/12:00pm 26.3 - - - - SSE 35 39 19 21 1011.9 1011.9 -
06/11:30am 26.4 - - - - SSE 35 39 19 21 1012.2 1012.2 -
06/11:00am 26.2 - - - - SE 35 41 19 22 1012.6 1012.6 -
06/10:30am 26.5 - - - - SE 33 37 18 20 1012.8 1012.8 -
06/10:00am 26.4 - - - - SE 32 37 17 20 1012.8 1012.8 -
06/09:30am 26.4 - - - - SSE 30 33 16 18 1013.1 1013.1 -
06/09:00am 26.2 - - - - SSE 32 35 17 19 1013.1 1013.1 -
06/08:30am 26.3 - - - - SSE 35 39 19 21 1012.9 1012.9 -
06/08:00am 26.3 - - - - SSE 35 39 19 21 1012.8 1012.8 -
06/07:30am 26.1 - - - - SSE 33 35 18 19 1012.7 1012.7 -
06/07:00am 26.4 - - - - SE 32 37 17 20 1012.4 1012.4 -
06/06:30am 26.1 - - - - SE 35 39 19 21 1012.1 1012.1 -
06/06:00am 26.0 - - - - SSE 33 39 18 21 1011.8 1011.8 -
06/05:30am 26.0 - - - - SSE 32 37 17 20 1011.6 1011.6 -
06/05:00am 26.0 - - - - SSE 32 37 17 20 1011.2 1011.2 -
06/04:30am 25.8 - - - - SSE 30 35 16 19 1010.9 1010.9 -
06/04:00am 26.0 - - - - SSE 33 37 18 20 1010.7 1010.7 -
06/03:30am 26.0 - - - - SSE 33 37 18 20 1010.6 1010.6 -
06/03:00am 26.0 - - - - SSE 33 35 18 19 1010.6 1010.6 -
06/02:30am 25.9 - - - - SSE 33 41 18 22 1010.8 1010.8 -
06/02:00am 26.0 - - - - SSE 33 39 18 21 1011.0 1011.0 -
06/01:30am 25.9 - - - - SSE 32 37 17 20 1011.1 1011.1 -
06/01:00am 25.8 - - - - SSE 33 39 18 21 1011.3 1011.3 -
06/12:30am 26.1 - - - - SSE 32 37 17 20 1011.7 1011.7 -
06/12:00am 26.1 - - - - SSE 33 37 18 20 1012.0 1012.0 -
 
Date/Time
EST
Temp
°C
App
Temp
°C
Dew
Point
°C
Rel
Hum
%
Delta-T
°C
Wind Press
QNH
hPa
Press
MSL
hPa
Rain since
9am
mm
Dir  Spd
km/h
Gust
km/h
Spd
kts
Gust
kts
05/11:30pm 26.0 - - - - SE 35 39 19 21 1012.2 1012.2 -
05/11:00pm 26.0 - - - - SE 35 39 19 21 1012.3 1012.3 -
05/10:30pm 26.1 - - - - SE 35 39 19 21 1012.6 1012.6 -
05/10:00pm 26.2 - - - - SE 37 43 20 23 1012.7 1012.7 -
05/09:30pm 26.2 - - - - SE 35 39 19 21 1012.8 1012.8 -
05/09:00pm 26.3 - - - - SE 35 41 19 22 1012.7 1012.7 -
05/08:30pm 26.1 - - - - SSE 37 41 20 22 1012.5 1012.5 -
05/08:00pm 26.2 - - - - SE 39 41 21 22 1012.4 1012.4 -
05/07:30pm 26.4 - - - - SSE 37 41 20 22 1012.1 1012.1 -
05/07:00pm 26.2 - - - - SSE 39 44 21 24 1011.9 1011.9 -
05/06:30pm 26.3 - - - - SSE 37 41 20 22 1011.6 1011.6 -
05/06:00pm 26.3 - - - - SSE 37 41 20 22 1011.3 1011.3 -
05/05:30pm 26.3 - - - - SSE 39 41 21 22 1011.0 1011.0 -
05/05:00pm 26.4 - - - - SSE 39 43 21 23 1010.8 1010.8 -

Other formats

Comma delimited format used in spreadsheet applications
http://www.bom.gov.au/fwo/IDQ60801/IDQ60801.94393.axf

JavaScript Object Notation format (JSON) in row-major order
http://www.bom.gov.au/fwo/IDQ60801/IDQ60801.94393.json

Data quality

Most of these data are generated automatically and are frequently updated. Quality checks on data are not normally performed. It is possible for incorrect values to appear. Refer to information at About Latest Weather Observations and please check the disclaimer before using these data.